sensor_id;sensor_type;location;lat;lon;timestamp;temperature;humidity
50544;DHT22;41176;44.032;20.900;2022-11-18T00:01:16;9.50;99.90
50544;DHT22;41176;44.032;20.900;2022-11-18T00:03:42;9.50;99.90
50544;DHT22;41176;44.032;20.900;2022-11-18T00:06:14;9.50;99.90
50544;DHT22;41176;44.032;20.900;2022-11-18T00:08:40;9.50;99.90
50544;DHT22;41176;44.032;20.900;2022-11-18T00:11:08;9.40;99.90
50544;DHT22;41176;44.032;20.900;2022-11-18T00:13:34;9.40;99.90
50544;DHT22;41176;44.032;20.900;2022-11-18T00:16:19;9.30;99.90
50544;DHT22;41176;44.032;20.900;2022-11-18T00:18:45;9.30;99.90
50544;DHT22;41176;44.032;20.900;2022-11-18T00:21:11;9.30;99.90
50544;DHT22;41176;44.032;20.900;2022-11-18T00:23:37;9.30;99.90
50544;DHT22;41176;44.032;20.900;2022-11-18T00:26:05;9.30;99.90
50544;DHT22;41176;44.032;20.900;2022-11-18T00:28:32;9.30;99.90
50544;DHT22;41176;44.032;20.900;2022-11-18T00:31:03;9.20;99.90
50544;DHT22;41176;44.032;20.900;2022-11-18T00:33:29;9.20;99.90
50544;DHT22;41176;44.032;20.900;2022-11-18T00:35:55;9.20;99.90
50544;DHT22;41176;44.032;20.900;2022-11-18T00:38:21;9.30;99.90
50544;DHT22;41176;44.032;20.900;2022-11-18T00:40:47;9.30;99.90
50544;DHT22;41176;44.032;20.900;2022-11-18T00:43:12;9.20;99.90
50544;DHT22;41176;44.032;20.900;2022-11-18T00:45:38;9.20;99.90
50544;DHT22;41176;44.032;20.900;2022-11-18T00:48:04;9.20;99.90
50544;DHT22;41176;44.032;20.900;2022-11-18T00:50:30;9.20;99.90
50544;DHT22;41176;44.032;20.900;2022-11-18T00:52:57;9.30;99.90
50544;DHT22;41176;44.032;20.900;2022-11-18T00:55:23;9.30;99.90
50544;DHT22;41176;44.032;20.900;2022-11-18T00:57:49;9.30;99.90
50544;DHT22;41176;44.032;20.900;2022-11-18T01:00:15;9.30;99.90
50544;DHT22;41176;44.032;20.900;2022-11-18T01:02:41;9.30;99.90
50544;DHT22;41176;44.032;20.900;2022-11-18T01:05:07;9.30;99.90
50544;DHT22;41176;44.032;20.900;2022-11-18T01:07:32;9.30;99.90
50544;DHT22;41176;44.032;20.900;2022-11-18T01:09:58;9.30;99.90
50544;DHT22;41176;44.032;20.900;2022-11-18T01:12:24;9.40;99.90
50544;DHT22;41176;44.032;20.900;2022-11-18T01:15:08;9.30;99.90
50544;DHT22;41176;44.032;20.900;2022-11-18T01:17:34;9.30;99.90
50544;DHT22;41176;44.032;20.900;2022-11-18T01:20:00;9.30;99.90
50544;DHT22;41176;44.032;20.900;2022-11-18T01:22:25;9.30;99.90
50544;DHT22;41176;44.032;20.900;2022-11-18T01:24:51;9.30;99.90
50544;DHT22;41176;44.032;20.900;2022-11-18T01:27:17;9.30;99.90
50544;DHT22;41176;44.032;20.900;2022-11-18T01:29:42;9.20;99.90
50544;DHT22;41176;44.032;20.900;2022-11-18T01:32:08;9.20;99.90
50544;DHT22;41176;44.032;20.900;2022-11-18T01:34:34;9.20;99.90
50544;DHT22;41176;44.032;20.900;2022-11-18T01:37:00;9.20;99.90
50544;DHT22;41176;44.032;20.900;2022-11-18T01:39:25;9.20;99.90
50544;DHT22;41176;44.032;20.900;2022-11-18T01:41:51;9.20;99.90
50544;DHT22;41176;44.032;20.900;2022-11-18T01:44:55;9.20;99.90
50544;DHT22;41176;44.032;20.900;2022-11-18T01:47:22;9.30;99.90
50544;DHT22;41176;44.032;20.900;2022-11-18T01:49:49;9.20;99.90
50544;DHT22;41176;44.032;20.900;2022-11-18T01:52:15;9.20;99.90
50544;DHT22;41176;44.032;20.900;2022-11-18T01:54:43;9.30;99.90
50544;DHT22;41176;44.032;20.900;2022-11-18T01:57:15;9.30;99.90
50544;DHT22;41176;44.032;20.900;2022-11-18T01:59:45;9.30;99.90
50544;DHT22;41176;44.032;20.900;2022-11-18T02:02:14;9.30;99.90
50544;DHT22;41176;44.032;20.900;2022-11-18T02:04:42;9.20;99.90
50544;DHT22;41176;44.032;20.900;2022-11-18T02:07:09;9.20;99.90
50544;DHT22;41176;44.032;20.900;2022-11-18T02:09:36;9.10;99.90
50544;DHT22;41176;44.032;20.900;2022-11-18T02:12:03;9.10;99.90
50544;DHT22;41176;44.032;20.900;2022-11-18T02:14:32;9.00;99.90
50544;DHT22;41176;44.032;20.900;2022-11-18T02:36:19;9.30;99.90
50544;DHT22;41176;44.032;20.900;2022-11-18T02:38:49;9.30;99.90
50544;DHT22;41176;44.032;20.900;2022-11-18T02:41:20;9.40;99.90
50544;DHT22;41176;44.032;20.900;2022-11-18T02:44:01;9.40;99.90
50544;DHT22;41176;44.032;20.900;2022-11-18T02:46:31;9.40;99.90
50544;DHT22;41176;44.032;20.900;2022-11-18T02:48:59;9.40;99.90
50544;DHT22;41176;44.032;20.900;2022-11-18T02:51:27;9.30;99.90
50544;DHT22;41176;44.032;20.900;2022-11-18T02:54:06;9.20;99.90
50544;DHT22;41176;44.032;20.900;2022-11-18T02:56:34;9.20;99.90
50544;DHT22;41176;44.032;20.900;2022-11-18T02:59:01;9.20;99.90
50544;DHT22;41176;44.032;20.900;2022-11-18T03:01:33;9.30;99.90
50544;DHT22;41176;44.032;20.900;2022-11-18T03:03:59;9.30;99.90
50544;DHT22;41176;44.032;20.900;2022-11-18T03:06:37;9.30;99.90
50544;DHT22;41176;44.032;20.900;2022-11-18T03:09:11;9.30;99.90
50544;DHT22;41176;44.032;20.900;2022-11-18T03:11:55;9.30;99.90
50544;DHT22;41176;44.032;20.900;2022-11-18T03:14:48;9.20;99.90
50544;DHT22;41176;44.032;20.900;2022-11-18T03:17:20;9.10;99.90
50544;DHT22;41176;44.032;20.900;2022-11-18T03:22:20;8.90;99.90
50544;DHT22;41176;44.032;20.900;2022-11-18T03:25:00;8.80;99.90
50544;DHT22;41176;44.032;20.900;2022-11-18T03:27:35;8.80;99.90
50544;DHT22;41176;44.032;20.900;2022-11-18T03:30:09;8.80;99.90
50544;DHT22;41176;44.032;20.900;2022-11-18T03:32:40;8.80;99.90
50544;DHT22;41176;44.032;20.900;2022-11-18T03:35:17;8.80;99.90
50544;DHT22;41176;44.032;20.900;2022-11-18T03:37:46;8.70;99.90
50544;DHT22;41176;44.032;20.900;2022-11-18T03:40:17;8.70;99.90
50544;DHT22;41176;44.032;20.900;2022-11-18T03:42:48;8.70;99.90
50544;DHT22;41176;44.032;20.900;2022-11-18T03:45:21;8.70;99.90
50544;DHT22;41176;44.032;20.900;2022-11-18T03:47:54;8.70;99.90
50544;DHT22;41176;44.032;20.900;2022-11-18T03:50:30;8.80;99.90
50544;DHT22;41176;44.032;20.900;2022-11-18T03:52:58;8.80;99.90
50544;DHT22;41176;44.032;20.900;2022-11-18T03:55:34;8.90;99.90
50544;DHT22;41176;44.032;20.900;2022-11-18T03:58:06;8.90;99.90
50544;DHT22;41176;44.032;20.900;2022-11-18T04:00:41;8.90;99.90
50544;DHT22;41176;44.032;20.900;2022-11-18T04:03:09;9.00;99.90
50544;DHT22;41176;44.032;20.900;2022-11-18T04:05:38;9.00;99.90
50544;DHT22;41176;44.032;20.900;2022-11-18T04:08:08;9.10;99.90
50544;DHT22;41176;44.032;20.900;2022-11-18T04:10:44;9.00;99.90
50544;DHT22;41176;44.032;20.900;2022-11-18T04:13:19;8.90;99.90
50544;DHT22;41176;44.032;20.900;2022-11-18T04:15:47;8.90;99.90
50544;DHT22;41176;44.032;20.900;2022-11-18T04:18:12;8.90;99.90
50544;DHT22;41176;44.032;20.900;2022-11-18T04:20:38;8.90;99.90
50544;DHT22;41176;44.032;20.900;2022-11-18T04:23:05;8.90;99.90
50544;DHT22;41176;44.032;20.900;2022-11-18T04:25:31;8.90;99.90
50544;DHT22;41176;44.032;20.900;2022-11-18T04:27:57;8.90;99.90
50544;DHT22;41176;44.032;20.900;2022-11-18T04:30:22;8.90;99.90
50544;DHT22;41176;44.032;20.900;2022-11-18T04:32:48;8.80;99.90
50544;DHT22;41176;44.032;20.900;2022-11-18T04:35:14;8.80;99.90
50544;DHT22;41176;44.032;20.900;2022-11-18T04:37:40;8.80;99.90
50544;DHT22;41176;44.032;20.900;2022-11-18T04:40:07;8.80;99.90
50544;DHT22;41176;44.032;20.900;2022-11-18T04:42:33;8.80;99.90
50544;DHT22;41176;44.032;20.900;2022-11-18T04:44:58;8.90;99.90
50544;DHT22;41176;44.032;20.900;2022-11-18T04:47:24;8.90;99.90
50544;DHT22;41176;44.032;20.900;2022-11-18T04:49:50;8.90;99.90
50544;DHT22;41176;44.032;20.900;2022-11-18T04:52:16;8.90;99.90
50544;DHT22;41176;44.032;20.900;2022-11-18T04:54:42;9.00;99.90
50544;DHT22;41176;44.032;20.900;2022-11-18T04:57:08;9.00;99.90
50544;DHT22;41176;44.032;20.900;2022-11-18T04:59:34;9.10;99.90
50544;DHT22;41176;44.032;20.900;2022-11-18T05:02:00;9.10;99.90
50544;DHT22;41176;44.032;20.900;2022-11-18T05:04:28;9.10;99.90
50544;DHT22;41176;44.032;20.900;2022-11-18T05:06:57;9.20;99.90
50544;DHT22;41176;44.032;20.900;2022-11-18T05:09:23;9.20;99.90
50544;DHT22;41176;44.032;20.900;2022-11-18T05:11:49;9.20;99.90
50544;DHT22;41176;44.032;20.900;2022-11-18T05:14:33;9.30;99.90
50544;DHT22;41176;44.032;20.900;2022-11-18T05:17:00;9.40;99.90
50544;DHT22;41176;44.032;20.900;2022-11-18T05:19:27;9.40;99.90
50544;DHT22;41176;44.032;20.900;2022-11-18T05:21:53;9.40;99.90
50544;DHT22;41176;44.032;20.900;2022-11-18T05:24:19;9.50;99.90
50544;DHT22;41176;44.032;20.900;2022-11-18T05:26:45;9.50;99.90
50544;DHT22;41176;44.032;20.900;2022-11-18T05:29:11;9.50;99.90
50544;DHT22;41176;44.032;20.900;2022-11-18T05:31:37;9.40;99.90
50544;DHT22;41176;44.032;20.900;2022-11-18T05:34:04;9.50;99.90
50544;DHT22;41176;44.032;20.900;2022-11-18T05:36:30;9.40;99.90
50544;DHT22;41176;44.032;20.900;2022-11-18T05:38:59;9.40;99.90
50544;DHT22;41176;44.032;20.900;2022-11-18T05:41:25;9.30;99.90
50544;DHT22;41176;44.032;20.900;2022-11-18T05:44:09;9.20;99.90
50544;DHT22;41176;44.032;20.900;2022-11-18T05:46:35;8.90;99.90
50544;DHT22;41176;44.032;20.900;2022-11-18T05:49:00;8.80;99.90
50544;DHT22;41176;44.032;20.900;2022-11-18T05:51:26;8.90;99.90
50544;DHT22;41176;44.032;20.900;2022-11-18T05:53:52;8.80;99.90
50544;DHT22;41176;44.032;20.900;2022-11-18T05:56:38;8.80;99.90
50544;DHT22;41176;44.032;20.900;2022-11-18T05:59:05;8.70;99.90
50544;DHT22;41176;44.032;20.900;2022-11-18T06:01:39;8.70;99.90
50544;DHT22;41176;44.032;20.900;2022-11-18T06:04:16;8.80;99.90
50544;DHT22;41176;44.032;20.900;2022-11-18T06:06:44;8.90;99.90
50544;DHT22;41176;44.032;20.900;2022-11-18T06:09:11;8.90;99.90
50544;DHT22;41176;44.032;20.900;2022-11-18T06:11:44;8.90;99.90
50544;DHT22;41176;44.032;20.900;2022-11-18T06:14:15;9.00;99.90
50544;DHT22;41176;44.032;20.900;2022-11-18T06:16:45;9.10;99.90
50544;DHT22;41176;44.032;20.900;2022-11-18T06:19:13;9.20;99.90
50544;DHT22;41176;44.032;20.900;2022-11-18T06:21:40;9.30;99.90
50544;DHT22;41176;44.032;20.900;2022-11-18T06:24:06;9.40;99.90
50544;DHT22;41176;44.032;20.900;2022-11-18T06:26:35;9.30;99.90
50544;DHT22;41176;44.032;20.900;2022-11-18T06:29:01;9.20;99.90
50544;DHT22;41176;44.032;20.900;2022-11-18T06:31:27;9.20;99.90
50544;DHT22;41176;44.032;20.900;2022-11-18T06:33:53;9.10;99.90
50544;DHT22;41176;44.032;20.900;2022-11-18T06:36:19;9.10;99.90
50544;DHT22;41176;44.032;20.900;2022-11-18T06:38:44;9.10;99.90
50544;DHT22;41176;44.032;20.900;2022-11-18T06:41:10;9.20;99.90
50544;DHT22;41176;44.032;20.900;2022-11-18T06:43:36;9.30;99.90
50544;DHT22;41176;44.032;20.900;2022-11-18T06:46:12;9.40;99.90
50544;DHT22;41176;44.032;20.900;2022-11-18T06:48:58;9.40;99.90
50544;DHT22;41176;44.032;20.900;2022-11-18T06:51:24;9.60;99.90
50544;DHT22;41176;44.032;20.900;2022-11-18T06:53:50;9.80;99.90
50544;DHT22;41176;44.032;20.900;2022-11-18T06:56:17;10.10;99.90
50544;DHT22;41176;44.032;20.900;2022-11-18T06:58:44;10.60;99.90
50544;DHT22;41176;44.032;20.900;2022-11-18T07:01:18;11.20;99.90
50544;DHT22;41176;44.032;20.900;2022-11-18T07:03:46;11.40;99.90
50544;DHT22;41176;44.032;20.900;2022-11-18T07:06:14;11.40;99.90
50544;DHT22;41176;44.032;20.900;2022-11-18T07:08:41;11.30;99.90
50544;DHT22;41176;44.032;20.900;2022-11-18T07:11:09;11.40;99.90
50544;DHT22;41176;44.032;20.900;2022-11-18T07:13:36;11.70;99.90
50544;DHT22;41176;44.032;20.900;2022-11-18T07:16:07;12.20;99.90
50544;DHT22;41176;44.032;20.900;2022-11-18T07:18:34;12.60;99.90
50544;DHT22;41176;44.032;20.900;2022-11-18T07:21:07;12.90;99.90
50544;DHT22;41176;44.032;20.900;2022-11-18T07:23:33;13.00;99.90
50544;DHT22;41176;44.032;20.900;2022-11-18T07:26:00;12.60;99.90
50544;DHT22;41176;44.032;20.900;2022-11-18T07:28:27;12.40;99.90
50544;DHT22;41176;44.032;20.900;2022-11-18T07:31:00;12.20;99.90
50544;DHT22;41176;44.032;20.900;2022-11-18T07:33:26;12.10;99.90
50544;DHT22;41176;44.032;20.900;2022-11-18T07:35:52;12.00;99.90
50544;DHT22;41176;44.032;20.900;2022-11-18T07:38:17;11.90;99.90
50544;DHT22;41176;44.032;20.900;2022-11-18T07:40:43;12.00;99.90
50544;DHT22;41176;44.032;20.900;2022-11-18T07:43:09;12.00;99.90
50544;DHT22;41176;44.032;20.900;2022-11-18T07:45:34;11.80;99.90
50544;DHT22;41176;44.032;20.900;2022-11-18T07:48:00;11.90;99.90
50544;DHT22;41176;44.032;20.900;2022-11-18T07:50:26;11.90;99.90
50544;DHT22;41176;44.032;20.900;2022-11-18T07:52:55;11.90;99.90
50544;DHT22;41176;44.032;20.900;2022-11-18T07:55:21;12.00;99.90
50544;DHT22;41176;44.032;20.900;2022-11-18T07:57:46;12.00;99.90
50544;DHT22;41176;44.032;20.900;2022-11-18T08:00:13;12.00;99.90
50544;DHT22;41176;44.032;20.900;2022-11-18T08:02:39;11.90;99.90
50544;DHT22;41176;44.032;20.900;2022-11-18T08:05:08;12.10;99.90
50544;DHT22;41176;44.032;20.900;2022-11-18T08:07:34;12.30;99.90
50544;DHT22;41176;44.032;20.900;2022-11-18T08:10:00;12.70;99.90
50544;DHT22;41176;44.032;20.900;2022-11-18T08:12:28;13.20;99.90
50544;DHT22;41176;44.032;20.900;2022-11-18T08:14:55;13.50;99.90
50544;DHT22;41176;44.032;20.900;2022-11-18T08:17:21;13.80;99.90
50544;DHT22;41176;44.032;20.900;2022-11-18T08:19:47;13.70;99.90
50544;DHT22;41176;44.032;20.900;2022-11-18T08:22:12;14.00;99.90
50544;DHT22;41176;44.032;20.900;2022-11-18T08:24:38;14.30;99.90
50544;DHT22;41176;44.032;20.900;2022-11-18T08:27:04;14.40;99.90
50544;DHT22;41176;44.032;20.900;2022-11-18T08:29:30;14.60;99.90
50544;DHT22;41176;44.032;20.900;2022-11-18T08:31:56;14.80;98.40
50544;DHT22;41176;44.032;20.900;2022-11-18T08:34:21;14.70;98.30
50544;DHT22;41176;44.032;20.900;2022-11-18T08:36:47;15.20;98.20
50544;DHT22;41176;44.032;20.900;2022-11-18T08:39:13;15.30;97.40
50544;DHT22;41176;44.032;20.900;2022-11-18T08:41:41;15.30;96.90
50544;DHT22;41176;44.032;20.900;2022-11-18T08:44:11;15.00;96.70
50544;DHT22;41176;44.032;20.900;2022-11-18T08:46:37;14.80;97.10
50544;DHT22;41176;44.032;20.900;2022-11-18T08:49:03;14.80;97.50
50544;DHT22;41176;44.032;20.900;2022-11-18T08:51:29;14.80;97.40
50544;DHT22;41176;44.032;20.900;2022-11-18T08:53:55;14.80;96.80
50544;DHT22;41176;44.032;20.900;2022-11-18T08:56:22;14.80;96.90
50544;DHT22;41176;44.032;20.900;2022-11-18T08:58:48;14.90;97.50
50544;DHT22;41176;44.032;20.900;2022-11-18T09:01:14;14.80;96.50
50544;DHT22;41176;44.032;20.900;2022-11-18T09:03:40;14.90;95.90
50544;DHT22;41176;44.032;20.900;2022-11-18T09:06:08;15.10;96.50
50544;DHT22;41176;44.032;20.900;2022-11-18T09:08:34;15.40;96.90
50544;DHT22;41176;44.032;20.900;2022-11-18T09:11:08;15.40;95.30
50544;DHT22;41176;44.032;20.900;2022-11-18T09:13:34;15.30;94.50
50544;DHT22;41176;44.032;20.900;2022-11-18T09:16:00;15.20;95.30
50544;DHT22;41176;44.032;20.900;2022-11-18T09:18:26;15.10;97.10
50544;DHT22;41176;44.032;20.900;2022-11-18T09:21:00;15.10;97.00
50544;DHT22;41176;44.032;20.900;2022-11-18T09:23:26;15.10;95.70
50544;DHT22;41176;44.032;20.900;2022-11-18T09:26:07;15.20;95.50
50544;DHT22;41176;44.032;20.900;2022-11-18T09:28:33;15.20;94.80
50544;DHT22;41176;44.032;20.900;2022-11-18T09:31:10;15.20;96.10
50544;DHT22;41176;44.032;20.900;2022-11-18T09:33:37;15.10;94.60
50544;DHT22;41176;44.032;20.900;2022-11-18T09:36:17;15.00;94.90
50544;DHT22;41176;44.032;20.900;2022-11-18T09:38:43;15.10;94.80
50544;DHT22;41176;44.032;20.900;2022-11-18T09:41:52;15.30;95.30
50544;DHT22;41176;44.032;20.900;2022-11-18T09:49:27;16.10;94.00
50544;DHT22;41176;44.032;20.900;2022-11-18T09:51:54;16.50;92.80
50544;DHT22;41176;44.032;20.900;2022-11-18T09:54:23;17.00;92.20
50544;DHT22;41176;44.032;20.900;2022-11-18T09:56:52;17.50;90.30
50544;DHT22;41176;44.032;20.900;2022-11-18T09:59:20;17.80;86.60
50544;DHT22;41176;44.032;20.900;2022-11-18T10:01:48;17.60;86.10
50544;DHT22;41176;44.032;20.900;2022-11-18T10:04:17;17.50;86.60
50544;DHT22;41176;44.032;20.900;2022-11-18T10:06:43;17.40;87.30
50544;DHT22;41176;44.032;20.900;2022-11-18T10:09:34;17.30;87.30
50544;DHT22;41176;44.032;20.900;2022-11-18T10:12:20;17.30;86.30
50544;DHT22;41176;44.032;20.900;2022-11-18T10:17:45;17.00;89.90
50544;DHT22;41176;44.032;20.900;2022-11-18T10:23:21;16.90;90.10
50544;DHT22;41176;44.032;20.900;2022-11-18T10:25:48;17.00;90.10
50544;DHT22;41176;44.032;20.900;2022-11-18T10:28:22;17.00;91.20
50544;DHT22;41176;44.032;20.900;2022-11-18T10:30:48;16.90;92.50
50544;DHT22;41176;44.032;20.900;2022-11-18T10:33:25;16.80;93.90
50544;DHT22;41176;44.032;20.900;2022-11-18T10:36:11;16.70;93.90
50544;DHT22;41176;44.032;20.900;2022-11-18T10:38:43;16.50;94.50
50544;DHT22;41176;44.032;20.900;2022-11-18T10:41:15;16.30;94.90
50544;DHT22;41176;44.032;20.900;2022-11-18T10:43:51;16.20;95.60
50544;DHT22;41176;44.032;20.900;2022-11-18T10:46:23;15.90;95.70
50544;DHT22;41176;44.032;20.900;2022-11-18T10:49:14;15.90;94.90
50544;DHT22;41176;44.032;20.900;2022-11-18T10:51:47;16.00;93.30
50544;DHT22;41176;44.032;20.900;2022-11-18T10:54:21;16.00;92.90
50544;DHT22;41176;44.032;20.900;2022-11-18T10:57:47;15.90;94.80
50544;DHT22;41176;44.032;20.900;2022-11-18T10:59:55;15.80;96.30
50544;DHT22;41176;44.032;20.900;2022-11-18T11:02:40;15.80;96.00
50544;DHT22;41176;44.032;20.900;2022-11-18T11:05:21;15.60;96.60
50544;DHT22;41176;44.032;20.900;2022-11-18T11:08:17;15.40;98.60
50544;DHT22;41176;44.032;20.900;2022-11-18T11:10:57;15.40;99.80
50544;DHT22;41176;44.032;20.900;2022-11-18T11:13:26;15.40;99.90
50544;DHT22;41176;44.032;20.900;2022-11-18T11:15:55;15.40;99.90
50544;DHT22;41176;44.032;20.900;2022-11-18T11:18:31;15.40;99.90
50544;DHT22;41176;44.032;20.900;2022-11-18T11:21:21;15.30;99.90
50544;DHT22;41176;44.032;20.900;2022-11-18T11:23:47;14.90;99.90
50544;DHT22;41176;44.032;20.900;2022-11-18T11:28:55;14.90;99.90
50544;DHT22;41176;44.032;20.900;2022-11-18T11:46:26;14.80;99.90
50544;DHT22;41176;44.032;20.900;2022-11-18T11:51:36;15.80;99.90
50544;DHT22;41176;44.032;20.900;2022-11-18T11:54:28;17.10;99.90
50544;DHT22;41176;44.032;20.900;2022-11-18T11:56:57;18.30;99.90
50544;DHT22;41176;44.032;20.900;2022-11-18T12:07:59;19.10;96.40
50544;DHT22;41176;44.032;20.900;2022-11-18T12:10:53;19.70;92.80
50544;DHT22;41176;44.032;20.900;2022-11-18T12:19:12;18.70;92.40
50544;DHT22;41176;44.032;20.900;2022-11-18T12:26:43;17.80;95.00
50544;DHT22;41176;44.032;20.900;2022-11-18T12:29:38;17.60;95.60
50544;DHT22;41176;44.032;20.900;2022-11-18T12:32:24;17.30;98.30
50544;DHT22;41176;44.032;20.900;2022-11-18T12:35:00;17.20;98.80
50544;DHT22;41176;44.032;20.900;2022-11-18T12:39:57;16.90;99.90
50544;DHT22;41176;44.032;20.900;2022-11-18T12:42:36;16.90;99.90
50544;DHT22;41176;44.032;20.900;2022-11-18T12:48:31;16.70;99.90
50544;DHT22;41176;44.032;20.900;2022-11-18T12:51:00;16.60;99.90
50544;DHT22;41176;44.032;20.900;2022-11-18T12:53:47;16.60;99.90
50544;DHT22;41176;44.032;20.900;2022-11-18T12:58:46;16.50;99.90
50544;DHT22;41176;44.032;20.900;2022-11-18T13:01:15;16.40;99.90
50544;DHT22;41176;44.032;20.900;2022-11-18T13:03:41;16.40;99.90
50544;DHT22;41176;44.032;20.900;2022-11-18T13:06:27;16.50;99.90
50544;DHT22;41176;44.032;20.900;2022-11-18T13:09:02;16.40;99.90
50544;DHT22;41176;44.032;20.900;2022-11-18T13:11:30;16.40;99.90
50544;DHT22;41176;44.032;20.900;2022-11-18T13:14:25;16.40;99.90
50544;DHT22;41176;44.032;20.900;2022-11-18T13:17:29;16.40;99.90
50544;DHT22;41176;44.032;20.900;2022-11-18T13:20:24;16.40;99.90
50544;DHT22;41176;44.032;20.900;2022-11-18T13:26:01;16.40;99.90
50544;DHT22;41176;44.032;20.900;2022-11-18T13:28:41;16.40;99.90
50544;DHT22;41176;44.032;20.900;2022-11-18T13:31:33;16.40;99.90
50544;DHT22;41176;44.032;20.900;2022-11-18T13:34:22;16.40;99.90
50544;DHT22;41176;44.032;20.900;2022-11-18T13:36:51;16.30;99.90
50544;DHT22;41176;44.032;20.900;2022-11-18T13:41:58;16.30;99.90
50544;DHT22;41176;44.032;20.900;2022-11-18T13:44:27;16.30;99.90
50544;DHT22;41176;44.032;20.900;2022-11-18T13:47:13;16.20;99.90
50544;DHT22;41176;44.032;20.900;2022-11-18T13:54:54;16.20;99.90
50544;DHT22;41176;44.032;20.900;2022-11-18T13:57:22;16.10;99.90
50544;DHT22;41176;44.032;20.900;2022-11-18T13:59:49;16.10;99.90
50544;DHT22;41176;44.032;20.900;2022-11-18T14:02:16;16.10;99.90
50544;DHT22;41176;44.032;20.900;2022-11-18T14:04:57;16.10;99.90
50544;DHT22;41176;44.032;20.900;2022-11-18T14:07:33;16.10;99.90
50544;DHT22;41176;44.032;20.900;2022-11-18T14:10:08;16.00;99.90
50544;DHT22;41176;44.032;20.900;2022-11-18T14:19:32;15.90;99.90
50544;DHT22;41176;44.032;20.900;2022-11-18T14:22:18;15.80;99.90
50544;DHT22;41176;44.032;20.900;2022-11-18T14:27:51;15.70;99.90
50544;DHT22;41176;44.032;20.900;2022-11-18T14:30:27;15.60;99.90
50544;DHT22;41176;44.032;20.900;2022-11-18T14:33:31;15.60;99.90
50544;DHT22;41176;44.032;20.900;2022-11-18T14:36:01;15.60;99.90
50544;DHT22;41176;44.032;20.900;2022-11-18T14:38:43;15.50;99.90
50544;DHT22;41176;44.032;20.900;2022-11-18T14:41:12;15.50;99.90
50544;DHT22;41176;44.032;20.900;2022-11-18T14:43:38;15.50;99.90
50544;DHT22;41176;44.032;20.900;2022-11-18T14:46:15;15.40;99.90
50544;DHT22;41176;44.032;20.900;2022-11-18T14:48:42;15.40;99.90
50544;DHT22;41176;44.032;20.900;2022-11-18T14:51:14;15.40;99.90
50544;DHT22;41176;44.032;20.900;2022-11-18T14:53:40;15.30;99.90
50544;DHT22;41176;44.032;20.900;2022-11-18T14:56:25;15.30;99.90
50544;DHT22;41176;44.032;20.900;2022-11-18T14:58:52;15.20;99.90
50544;DHT22;41176;44.032;20.900;2022-11-18T15:01:18;15.10;99.90
50544;DHT22;41176;44.032;20.900;2022-11-18T15:03:44;15.00;99.90
50544;DHT22;41176;44.032;20.900;2022-11-18T15:06:14;14.90;99.90
50544;DHT22;41176;44.032;20.900;2022-11-18T15:08:41;14.90;99.90
50544;DHT22;41176;44.032;20.900;2022-11-18T15:11:08;15.00;99.90
50544;DHT22;41176;44.032;20.900;2022-11-18T15:13:35;15.00;99.90
50544;DHT22;41176;44.032;20.900;2022-11-18T15:18:39;14.90;99.90
50544;DHT22;41176;44.032;20.900;2022-11-18T15:21:05;14.90;99.90
50544;DHT22;41176;44.032;20.900;2022-11-18T15:23:36;14.90;99.90
50544;DHT22;41176;44.032;20.900;2022-11-18T15:28:59;14.80;99.90
50544;DHT22;41176;44.032;20.900;2022-11-18T15:31:40;15.00;99.90
50544;DHT22;41176;44.032;20.900;2022-11-18T15:34:21;15.00;99.90
50544;DHT22;41176;44.032;20.900;2022-11-18T15:46:43;14.80;99.90
50544;DHT22;41176;44.032;20.900;2022-11-18T15:49:44;14.80;99.90
50544;DHT22;41176;44.032;20.900;2022-11-18T15:52:13;14.80;99.90
50544;DHT22;41176;44.032;20.900;2022-11-18T15:58:04;14.80;99.90
50544;DHT22;41176;44.032;20.900;2022-11-18T16:00:37;14.70;99.90
50544;DHT22;41176;44.032;20.900;2022-11-18T16:03:05;14.60;99.90
50544;DHT22;41176;44.032;20.900;2022-11-18T16:05:43;14.70;99.90
50544;DHT22;41176;44.032;20.900;2022-11-18T16:12:48;14.70;99.90
50544;DHT22;41176;44.032;20.900;2022-11-18T16:18:43;14.60;99.90
50544;DHT22;41176;44.032;20.900;2022-11-18T16:21:21;14.60;99.90
50544;DHT22;41176;44.032;20.900;2022-11-18T16:24:13;14.50;99.90
50544;DHT22;41176;44.032;20.900;2022-11-18T16:26:40;14.50;99.90
50544;DHT22;41176;44.032;20.900;2022-11-18T16:29:06;14.50;99.90
50544;DHT22;41176;44.032;20.900;2022-11-18T16:31:47;14.50;99.90
50544;DHT22;41176;44.032;20.900;2022-11-18T16:34:27;14.40;99.90
50544;DHT22;41176;44.032;20.900;2022-11-18T16:36:56;14.40;99.90
50544;DHT22;41176;44.032;20.900;2022-11-18T16:39:38;14.30;99.90
50544;DHT22;41176;44.032;20.900;2022-11-18T16:42:26;14.30;99.90
50544;DHT22;41176;44.032;20.900;2022-11-18T16:58:11;14.20;99.90
50544;DHT22;41176;44.032;20.900;2022-11-18T17:22:04;13.80;99.90
50544;DHT22;41176;44.032;20.900;2022-11-18T17:25:22;13.80;99.90
50544;DHT22;41176;44.032;20.900;2022-11-18T17:28:13;13.90;99.90
50544;DHT22;41176;44.032;20.900;2022-11-18T17:51:23;13.70;99.90
50544;DHT22;41176;44.032;20.900;2022-11-18T17:54:01;13.70;99.90
50544;DHT22;41176;44.032;20.900;2022-11-18T17:56:56;13.80;99.90
50544;DHT22;41176;44.032;20.900;2022-11-18T18:36:32;13.40;99.90
50544;DHT22;41176;44.032;20.900;2022-11-18T18:38:58;13.30;99.90
50544;DHT22;41176;44.032;20.900;2022-11-18T18:41:27;13.30;99.90
50544;DHT22;41176;44.032;20.900;2022-11-18T18:43:53;13.20;99.90
50544;DHT22;41176;44.032;20.900;2022-11-18T18:46:47;13.20;99.90
50544;DHT22;41176;44.032;20.900;2022-11-18T19:59:31;12.80;99.90
50544;DHT22;41176;44.032;20.900;2022-11-18T20:01:57;12.70;99.90
50544;DHT22;41176;44.032;20.900;2022-11-18T20:04:24;12.70;99.90
50544;DHT22;41176;44.032;20.900;2022-11-18T20:06:50;12.70;99.90
50544;DHT22;41176;44.032;20.900;2022-11-18T20:09:45;12.70;99.90
50544;DHT22;41176;44.032;20.900;2022-11-18T20:12:35;12.80;99.90
50544;DHT22;41176;44.032;20.900;2022-11-18T20:15:32;12.70;99.90
50544;DHT22;41176;44.032;20.900;2022-11-18T20:21:33;12.80;99.90
50544;DHT22;41176;44.032;20.900;2022-11-18T20:27:18;12.50;99.90
50544;DHT22;41176;44.032;20.900;2022-11-18T20:29:55;12.50;99.90
50544;DHT22;41176;44.032;20.900;2022-11-18T20:32:28;12.50;99.90
50544;DHT22;41176;44.032;20.900;2022-11-18T20:34:54;12.40;99.90
50544;DHT22;41176;44.032;20.900;2022-11-18T20:40:26;12.30;99.90
50544;DHT22;41176;44.032;20.900;2022-11-18T20:42:54;12.10;99.90
50544;DHT22;41176;44.032;20.900;2022-11-18T20:45:54;12.10;99.90
50544;DHT22;41176;44.032;20.900;2022-11-18T20:55:23;11.80;99.90
50544;DHT22;41176;44.032;20.900;2022-11-18T20:57:49;11.70;99.90